createdAt,value
2023-02-09T00:02:51.446Z,76.67
2023-02-09T00:08:22.811Z,76.54
2023-02-09T00:13:58.947Z,76.66
2023-02-09T00:19:33.676Z,77.05
2023-02-09T00:25:02.650Z,77.22
2023-02-09T00:30:34.291Z,77.13
2023-02-09T00:36:05.952Z,77.52
2023-02-09T00:41:37.858Z,77.72
2023-02-09T00:47:09.409Z,78.48
2023-02-09T00:52:41.776Z,78.36
2023-02-09T00:58:12.947Z,77.97
2023-02-09T01:03:44.596Z,78.29
2023-02-09T01:09:16.736Z,78.15
2023-02-09T01:14:52.532Z,78.0
2023-02-09T01:20:24.247Z,78.25
2023-02-09T01:25:56.029Z,77.96
2023-02-09T01:31:28.046Z,77.77
2023-02-09T01:36:59.993Z,78.15
2023-02-09T01:42:31.005Z,78.45
2023-02-09T01:48:02.784Z,78.94
2023-02-09T01:53:35.517Z,79.24
2023-02-09T01:59:06.518Z,79.14
2023-02-09T02:04:38.033Z,78.88
2023-02-09T02:10:09.649Z,79.29
2023-02-09T02:15:46.721Z,79.26
2023-02-09T02:21:17.541Z,79.2
2023-02-09T02:26:49.322Z,78.64
2023-02-09T02:32:21.074Z,78.91
2023-02-09T02:37:53.086Z,79.46
2023-02-09T02:43:24.554Z,78.75
2023-02-09T02:48:56.383Z,78.95
2023-02-09T02:54:28.073Z,79.36
2023-02-09T02:59:59.812Z,79.4
2023-02-09T03:05:31.627Z,79.57
2023-02-09T03:11:03.315Z,79.51
2023-02-09T03:22:13.085Z,80.79
2023-02-09T03:27:44.904Z,80.58
2023-02-09T03:33:16.516Z,80.06
2023-02-09T03:38:48.280Z,79.46
2023-02-09T03:44:19.915Z,79.96
2023-02-09T03:49:51.830Z,80.97
2023-02-09T03:55:23.511Z,81.7
2023-02-09T04:00:55.215Z,82.0
2023-02-09T04:06:26.934Z,81.27
2023-02-09T04:11:58.496Z,81.65
2023-02-09T04:17:34.638Z,81.03
2023-02-09T04:23:06.521Z,81.15
2023-02-09T04:28:37.956Z,81.32
2023-02-09T04:34:09.712Z,81.03
2023-02-09T04:39:41.550Z,81.53
2023-02-09T04:45:13.303Z,82.06
2023-02-09T04:50:45.744Z,82.81
2023-02-09T04:56:17.937Z,84.77
2023-02-09T05:01:48.431Z,86.2
2023-02-09T05:07:20.207Z,86.13
2023-02-09T05:12:52.688Z,86.79
2023-02-09T05:18:28.131Z,85.93
2023-02-09T05:23:59.880Z,87.0
2023-02-09T05:29:31.633Z,85.41
2023-02-09T05:35:03.270Z,85.51
2023-02-09T05:40:34.987Z,85.51
2023-02-09T05:46:08.771Z,85.58
2023-02-09T05:51:38.464Z,85.06
2023-02-09T05:57:10.254Z,85.33
2023-02-09T06:02:42.115Z,85.38
2023-02-09T06:08:13.668Z,84.71
2023-02-09T06:13:45.275Z,84.49
2023-02-09T06:19:21.525Z,83.12
2023-02-09T06:24:53.085Z,82.7
2023-02-09T06:30:25.042Z,82.72
2023-02-09T06:35:57.627Z,83.23
2023-02-09T06:41:28.299Z,83.33
2023-02-09T06:47:00.092Z,82.39
2023-02-09T06:52:31.775Z,81.94
2023-02-09T06:58:03.682Z,81.99
2023-02-09T07:03:35.362Z,82.12
2023-02-09T07:09:06.837Z,82.83
2023-02-09T07:14:38.579Z,82.96
2023-02-09T07:20:14.850Z,83.72
2023-02-09T07:25:46.392Z,84.09
2023-02-09T07:31:18.396Z,84.05
2023-02-09T07:36:50.134Z,84.93
2023-02-09T07:42:23.728Z,85.23
2023-02-09T07:47:53.393Z,84.97
2023-02-09T07:53:25.484Z,85.23
2023-02-09T07:58:56.899Z,85.84
2023-02-09T08:04:28.741Z,85.36
2023-02-09T08:10:00.439Z,85.24
2023-02-09T08:15:32.176Z,85.3
2023-02-09T08:21:08.388Z,84.79
2023-02-09T08:26:40.072Z,83.7
2023-02-09T08:32:11.941Z,80.03
2023-02-09T08:37:43.513Z,81.94
2023-02-09T08:43:15.212Z,83.06
2023-02-09T08:48:47.364Z,81.57
2023-02-09T08:54:18.691Z,82.42
2023-02-09T08:59:50.287Z,82.06
2023-02-09T09:05:22.087Z,81.79
2023-02-09T09:10:53.721Z,80.66
2023-02-09T09:16:25.599Z,79.93
2023-02-09T09:22:01.708Z,78.57
2023-02-09T09:27:33.255Z,77.16
2023-02-09T09:33:05.247Z,75.85
2023-02-09T09:38:36.858Z,75.22
2023-02-09T09:44:08.651Z,76.36
2023-02-09T09:49:40.210Z,77.3
2023-02-09T09:55:11.973Z,74.23
2023-02-09T10:00:43.654Z,73.75
2023-02-09T10:06:15.406Z,75.59
2023-02-09T10:11:47.950Z,73.2
2023-02-09T10:17:19.007Z,70.64
2023-02-09T10:22:57.891Z,71.24
2023-02-09T10:28:28.802Z,72.38
2023-02-09T10:34:00.416Z,71.56
2023-02-09T10:39:32.198Z,70.99
2023-02-09T10:45:03.902Z,73.3
2023-02-09T10:50:35.594Z,69.89
2023-02-09T10:56:07.288Z,68.9
2023-02-09T11:01:39.948Z,69.02
2023-02-09T11:07:10.811Z,70.48
2023-02-09T11:12:42.461Z,68.78
2023-02-09T11:18:14.423Z,69.36
2023-02-09T11:23:52.419Z,70.19
2023-02-09T11:29:24.100Z,71.69
2023-02-09T11:34:55.670Z,70.54
2023-02-09T11:40:27.574Z,70.66
2023-02-09T11:46:00.483Z,69.94
2023-02-09T11:51:32.662Z,69.59
2023-02-09T11:57:02.672Z,67.38
2023-02-09T12:02:34.405Z,67.17
2023-02-09T12:08:05.995Z,66.93
2023-02-09T12:13:38.762Z,68.67
2023-02-09T12:19:09.514Z,66.08
2023-02-09T12:24:46.020Z,68.53
2023-02-09T12:30:17.533Z,65.99
2023-02-09T12:35:49.238Z,67.36
2023-02-09T12:41:20.925Z,66.76
2023-02-09T12:46:52.695Z,67.16
2023-02-09T12:52:24.373Z,66.9
2023-02-09T12:57:56.152Z,65.85
2023-02-09T13:03:28.205Z,66.87
2023-02-09T13:08:59.516Z,67.07
2023-02-09T13:14:31.444Z,66.73
2023-02-09T13:20:03.143Z,66.89
2023-02-09T13:25:39.265Z,66.43
2023-02-09T13:31:11.124Z,67.68
2023-02-09T13:36:42.612Z,66.59
2023-02-09T13:42:14.444Z,67.12
2023-02-09T13:47:46.133Z,68.32
2023-02-09T13:53:17.779Z,67.65
2023-02-09T13:58:49.567Z,68.47
2023-02-09T14:04:21.407Z,68.34
2023-02-09T14:09:52.905Z,67.08
2023-02-09T14:15:24.629Z,65.82
2023-02-09T14:20:56.335Z,67.88
2023-02-09T14:26:33.387Z,67.83
2023-02-09T14:32:04.194Z,69.31
2023-02-09T14:37:35.978Z,69.67
2023-02-09T14:43:08.089Z,69.32
2023-02-09T14:48:39.455Z,68.96
2023-02-09T14:54:11.536Z,69.84
2023-02-09T14:59:42.897Z,69.56
2023-02-09T15:05:14.565Z,69.34
2023-02-09T15:10:46.209Z,68.97
2023-02-09T15:16:18.079Z,68.78
2023-02-09T15:22:07.569Z,69.74
2023-02-09T15:27:27.951Z,68.78
2023-02-09T15:32:59.627Z,69.62
2023-02-09T15:38:31.747Z,69.33
2023-02-09T15:44:03.082Z,69.65
2023-02-09T15:49:34.833Z,70.2
2023-02-09T15:55:06.740Z,70.15
2023-02-09T16:00:38.246Z,71.33
2023-02-09T16:06:10.052Z,71.36
2023-02-09T16:11:41.709Z,72.13
2023-02-09T16:17:13.367Z,72.45
2023-02-09T16:22:45.141Z,72.61
2023-02-09T16:28:21.729Z,72.5
2023-02-09T16:33:52.904Z,72.45
2023-02-09T16:39:24.600Z,72.49
2023-02-09T16:44:56.351Z,72.48
2023-02-09T16:50:28.076Z,72.86
2023-02-09T16:55:59.956Z,73.23
2023-02-09T17:01:31.698Z,73.67
2023-02-09T17:07:03.843Z,73.85
2023-02-09T17:12:35.184Z,74.72
2023-02-09T17:18:06.876Z,74.46
2023-02-09T17:23:38.576Z,74.65
2023-02-09T17:29:14.647Z,75.09
2023-02-09T17:34:46.371Z,75.54
2023-02-09T17:40:18.112Z,75.11
2023-02-09T17:45:50.405Z,75.1
2023-02-09T17:51:21.595Z,75.4
2023-02-09T17:56:53.377Z,75.0
2023-02-09T18:02:25.077Z,75.1
2023-02-09T18:07:56.906Z,75.02
2023-02-09T18:13:28.692Z,75.0
2023-02-09T18:19:00.089Z,75.77
2023-02-09T18:24:32.137Z,75.77
2023-02-09T18:30:08.261Z,75.73
2023-02-09T18:35:39.805Z,76.16
2023-02-09T18:41:11.670Z,75.98
2023-02-09T18:46:43.454Z,75.91
2023-02-09T18:52:14.989Z,75.89
2023-02-09T18:57:47.237Z,76.38
2023-02-09T19:03:18.397Z,76.37
2023-02-09T19:08:50.170Z,75.84
2023-02-09T19:14:21.841Z,76.59
2023-02-09T19:19:53.562Z,75.79
2023-02-09T19:25:25.362Z,76.75
2023-02-09T19:31:03.929Z,77.09
2023-02-09T19:36:35.074Z,77.38
2023-02-09T19:42:06.988Z,77.24
2023-02-09T19:47:38.624Z,77.37
2023-02-09T19:53:10.303Z,77.74
2023-02-09T19:58:42.106Z,77.56
2023-02-09T20:04:13.835Z,78.96
2023-02-09T20:09:45.631Z,78.62
2023-02-09T20:15:17.217Z,78.32
2023-02-09T20:20:49.471Z,79.37
2023-02-09T20:26:20.740Z,78.73
2023-02-09T20:31:58.912Z,78.28
2023-02-09T20:37:30.659Z,79.82
2023-02-09T20:43:02.316Z,80.0
2023-02-09T20:48:33.977Z,79.91
2023-02-09T20:54:06.187Z,79.75
2023-02-09T20:59:37.539Z,80.18
2023-02-09T21:05:09.414Z,80.36
2023-02-09T21:10:41.638Z,80.83
2023-02-09T21:16:12.706Z,81.18
2023-02-09T21:21:44.433Z,80.54
2023-02-09T21:27:16.138Z,80.96
2023-02-09T21:32:54.239Z,81.25
2023-02-09T21:38:26.111Z,81.5
2023-02-09T21:43:57.849Z,81.1
2023-02-09T21:49:29.619Z,81.24
2023-02-09T21:55:01.459Z,81.3
2023-02-09T22:00:32.842Z,81.24
2023-02-09T22:06:04.568Z,81.65
2023-02-09T22:11:36.292Z,81.04
2023-02-09T22:17:07.977Z,81.29
2023-02-09T22:22:40.030Z,81.37
2023-02-09T22:28:11.475Z,81.79
2023-02-09T22:33:47.530Z,81.74
2023-02-09T22:39:19.401Z,82.21
2023-02-09T22:44:51.672Z,81.63
2023-02-09T22:50:22.855Z,81.55
2023-02-09T22:55:54.777Z,81.79
2023-02-09T23:01:26.572Z,81.33
2023-02-09T23:06:58.043Z,81.65
2023-02-09T23:12:29.678Z,81.91
2023-02-09T23:18:02.784Z,81.37
2023-02-09T23:23:32.955Z,80.66
2023-02-09T23:29:05.410Z,81.03
2023-02-09T23:34:43.007Z,80.83
2023-02-09T23:40:15.602Z,81.07
2023-02-09T23:45:46.421Z,80.62
2023-02-09T23:51:18.264Z,80.68
2023-02-09T23:56:49.940Z,80.27
